sensor_id;sensor_type;location;lat;lon;timestamp;pressure;altitude;pressure_sealevel;temperature;humidity
44531;BME280;30240;47.418;0.700;2022-09-12T00:01:58;100151.2451171875;;;17.52;74.76
44531;BME280;30240;47.418;0.700;2022-09-12T00:06:52;100150.732421875;;;17.52;74.81
44531;BME280;30240;47.418;0.700;2022-09-12T00:09:12;100143.15795898438;;;17.44;75.08
44531;BME280;30240;47.418;0.700;2022-09-12T00:14:08;100144.28100585938;;;17.39;75.44
44531;BME280;30240;47.418;0.700;2022-09-12T00:16:33;100145.8740234375;;;17.35;75.66
44531;BME280;30240;47.418;0.700;2022-09-12T00:18:50;100139.34326171875;;;17.28;76.07
44531;BME280;30240;47.418;0.700;2022-09-12T00:23:47;100140.97900390625;;;17.24;76.28
44531;BME280;30240;47.418;0.700;2022-09-12T00:26:06;100137.92114257812;;;17.18;76.66
44531;BME280;30240;47.418;0.700;2022-09-12T00:28:36;100144.1162109375;;;17.16;76.81
44531;BME280;30240;47.418;0.700;2022-09-12T00:30:55;100139.4775390625;;;17.11;77.03
44531;BME280;30240;47.418;0.700;2022-09-12T00:35:48;100135.5224609375;;;17.04;77.38
44531;BME280;30240;47.418;0.700;2022-09-12T00:40:42;100121.044921875;;;17.02;77.7
44531;BME280;30240;47.418;0.700;2022-09-12T00:43:11;100123.07739257812;;;16.89;78.25
44531;BME280;30240;47.418;0.700;2022-09-12T00:45:28;100125.54931640625;;;16.92;78.35
44531;BME280;30240;47.418;0.700;2022-09-12T00:48:00;100123.27270507812;;;16.86;78.63
44531;BME280;30240;47.418;0.700;2022-09-12T00:50:16;100123.27270507812;;;16.86;78.63
44531;BME280;30240;47.418;0.700;2022-09-12T00:52:43;100116.796875;;;16.89;78.65
44531;BME280;30240;47.418;0.700;2022-09-12T00:55:13;100111.07788085938;;;16.89;78.75
44531;BME280;30240;47.418;0.700;2022-09-12T00:57:34;100101.62353515625;;;16.89;79.09
44531;BME280;30240;47.418;0.700;2022-09-12T01:00:03;100104.90112304688;;;16.85;79.05
44531;BME280;30240;47.418;0.700;2022-09-12T01:02:21;100104.90112304688;;;16.85;79.05
44531;BME280;30240;47.418;0.700;2022-09-12T01:04:51;100106.34155273438;;;16.87;79.06
44531;BME280;30240;47.418;0.700;2022-09-12T01:07:11;100099.98168945312;;;16.8;79.44
44531;BME280;30240;47.418;0.700;2022-09-12T01:09:35;100096.32568359375;;;16.8;79.52
44531;BME280;30240;47.418;0.700;2022-09-12T01:14:30;100088.97094726562;;;16.75;79.84
44531;BME280;30240;47.418;0.700;2022-09-12T01:16:57;100090.02075195312;;;16.76;79.85
44531;BME280;30240;47.418;0.700;2022-09-12T01:19:53;100084.51538085938;;;16.73;80.02
44531;BME280;30240;47.418;0.700;2022-09-12T01:20:12;100084.51538085938;;;16.73;80.02
44531;BME280;30240;47.418;0.700;2022-09-12T01:20:20;100084.51538085938;;;16.73;80.02
44531;BME280;30240;47.418;0.700;2022-09-12T01:21:51;100086.80419921875;;;16.72;80.29
44531;BME280;30240;47.418;0.700;2022-09-12T01:21:58;100086.80419921875;;;16.72;80.29
44531;BME280;30240;47.418;0.700;2022-09-12T01:22:04;100086.80419921875;;;16.72;80.29
44531;BME280;30240;47.418;0.700;2022-09-12T01:22:10;100086.80419921875;;;16.72;80.29
44531;BME280;30240;47.418;0.700;2022-09-12T01:22:19;100086.80419921875;;;16.72;80.29
44531;BME280;30240;47.418;0.700;2022-09-12T01:24:41;100079.8583984375;;;16.69;80.41
44531;BME280;30240;47.418;0.700;2022-09-12T01:24:50;100079.8583984375;;;16.69;80.41
44531;BME280;30240;47.418;0.700;2022-09-12T01:27:22;100079.8583984375;;;16.69;80.41
44531;BME280;30240;47.418;0.700;2022-09-12T01:29:17;100076.31225585938;;;16.68;80.62
44531;BME280;30240;47.418;0.700;2022-09-12T01:29:25;100076.31225585938;;;16.68;80.62
44531;BME280;30240;47.418;0.700;2022-09-12T01:29:43;100076.31225585938;;;16.68;80.62
44531;BME280;30240;47.418;0.700;2022-09-12T01:29:54;100076.31225585938;;;16.68;80.62
44531;BME280;30240;47.418;0.700;2022-09-12T01:31:30;100071.923828125;;;16.69;80.63
44531;BME280;30240;47.418;0.700;2022-09-12T01:33:55;100075.03051757812;;;16.68;80.75
44531;BME280;30240;47.418;0.700;2022-09-12T01:36:17;100065.74096679688;;;16.67;80.87
44531;BME280;30240;47.418;0.700;2022-09-12T01:43:33;100063.92822265625;;;16.61;81.02
44531;BME280;30240;47.418;0.700;2022-09-12T01:45:55;100060.96801757812;;;16.62;81.11
44531;BME280;30240;47.418;0.700;2022-09-12T01:48:21;100057.86743164062;;;16.62;81.1
44531;BME280;30240;47.418;0.700;2022-09-12T01:50:51;100057.86743164062;;;16.62;81.1
44531;BME280;30240;47.418;0.700;2022-09-12T01:53:10;100049.83520507812;;;16.59;81.27
44531;BME280;30240;47.418;0.700;2022-09-12T01:55:32;100046.39282226562;;;16.54;81.49
44531;BME280;30240;47.418;0.700;2022-09-12T01:57:58;100043.86596679688;;;16.5;81.69
44531;BME280;30240;47.418;0.700;2022-09-12T02:00:24;100049.8046875;;;16.55;81.71
44531;BME280;30240;47.418;0.700;2022-09-12T02:02:51;100049.8046875;;;16.55;81.71
44531;BME280;30240;47.418;0.700;2022-09-12T02:05:17;100042.529296875;;;16.51;81.7
44531;BME280;30240;47.418;0.700;2022-09-12T02:07:46;100045.09887695312;;;16.47;81.94
44531;BME280;30240;47.418;0.700;2022-09-12T02:10:04;100041.357421875;;;16.44;82.07
44531;BME280;30240;47.418;0.700;2022-09-12T02:12:36;100045.45288085938;;;16.43;82.04
44531;BME280;30240;47.418;0.700;2022-09-12T02:14:56;100048.90747070312;;;16.44;82.13
44531;BME280;30240;47.418;0.700;2022-09-12T02:17:18;100048.90747070312;;;16.44;82.13
44531;BME280;30240;47.418;0.700;2022-09-12T02:19:42;100048.82202148438;;;16.41;82.17
44531;BME280;30240;47.418;0.700;2022-09-12T02:22:11;100041.73583984375;;;16.4;82.35
44531;BME280;30240;47.418;0.700;2022-09-12T02:24:35;100035.31494140625;;;16.41;82.33
44531;BME280;30240;47.418;0.700;2022-09-12T02:27:02;100035.13793945312;;;16.4;82.36
44531;BME280;30240;47.418;0.700;2022-09-12T02:34:26;100035.12573242188;;;16.37;82.6
44531;BME280;30240;47.418;0.700;2022-09-12T02:36:41;100033.3740234375;;;16.33;82.65
44531;BME280;30240;47.418;0.700;2022-09-12T02:39:05;100027.0263671875;;;16.34;82.63
44531;BME280;30240;47.418;0.700;2022-09-12T02:41:31;100027.0263671875;;;16.34;82.63
44531;BME280;30240;47.418;0.700;2022-09-12T02:43:52;100020.13549804688;;;16.3;82.71
44531;BME280;30240;47.418;0.700;2022-09-12T02:46:20;100018.85986328125;;;16.24;82.86
44531;BME280;30240;47.418;0.700;2022-09-12T02:48:42;100017.73681640625;;;16.24;82.79
44531;BME280;30240;47.418;0.700;2022-09-12T02:51:05;100018.0419921875;;;16.24;82.92
44531;BME280;30240;47.418;0.700;2022-09-12T02:53:31;100018.0419921875;;;16.24;82.92
44531;BME280;30240;47.418;0.700;2022-09-12T02:55:56;100015.46630859375;;;16.23;82.96
44531;BME280;30240;47.418;0.700;2022-09-12T02:58:23;100014.15405273438;;;16.26;82.89
44531;BME280;30240;47.418;0.700;2022-09-12T03:03:25;100017.15087890625;;;16.17;83.07
44531;BME280;30240;47.418;0.700;2022-09-12T03:05:45;100017.15087890625;;;16.17;83.07
44531;BME280;30240;47.418;0.700;2022-09-12T03:05:52;100017.15087890625;;;16.17;83.07
44531;BME280;30240;47.418;0.700;2022-09-12T03:08:13;100021.08764648438;;;16.19;82.9
44531;BME280;30240;47.418;0.700;2022-09-12T03:08:30;100021.08764648438;;;16.19;82.9
44531;BME280;30240;47.418;0.700;2022-09-12T03:10:29;100021.85668945312;;;16.19;83.05
44531;BME280;30240;47.418;0.700;2022-09-12T03:13:00;100018.75610351562;;;16.14;83.1
44531;BME280;30240;47.418;0.700;2022-09-12T03:15:21;100017.236328125;;;16.2;83.05
44531;BME280;30240;47.418;0.700;2022-09-12T03:17:45;100017.236328125;;;16.2;83.05
44531;BME280;30240;47.418;0.700;2022-09-12T03:17:53;100017.236328125;;;16.2;83.05
44531;BME280;30240;47.418;0.700;2022-09-12T03:20:09;100016.259765625;;;16.09;83.26
44531;BME280;30240;47.418;0.700;2022-09-12T03:22:34;100016.03393554688;;;16.09;83.33
44531;BME280;30240;47.418;0.700;2022-09-12T03:22:40;100016.03393554688;;;16.09;83.33
44531;BME280;30240;47.418;0.700;2022-09-12T03:22:46;100016.03393554688;;;16.09;83.33
44531;BME280;30240;47.418;0.700;2022-09-12T03:22:51;100016.03393554688;;;16.09;83.33
44531;BME280;30240;47.418;0.700;2022-09-12T03:25:02;100013.037109375;;;16.06;83.5
44531;BME280;30240;47.418;0.700;2022-09-12T03:27:29;100010.65673828125;;;16.06;83.52
44531;BME280;30240;47.418;0.700;2022-09-12T03:29:44;100010.65673828125;;;16.06;83.52
44531;BME280;30240;47.418;0.700;2022-09-12T03:36:59;99998.63891601562;;;15.93;83.9
44531;BME280;30240;47.418;0.700;2022-09-12T03:39:31;99998.34594726562;;;15.92;84.16
44531;BME280;30240;47.418;0.700;2022-09-12T03:41:57;99996.06323242188;;;15.89;84.04
44531;BME280;30240;47.418;0.700;2022-09-12T03:44:16;99996.06323242188;;;15.89;84.04
44531;BME280;30240;47.418;0.700;2022-09-12T03:46:39;99992.333984375;;;15.86;84.29
44531;BME280;30240;47.418;0.700;2022-09-12T03:49:05;99989.93530273438;;;15.82;84.26
44531;BME280;30240;47.418;0.700;2022-09-12T03:51:31;99989.00146484375;;;15.75;84.58
44531;BME280;30240;47.418;0.700;2022-09-12T03:53:59;99994.6044921875;;;15.69;84.78
44531;BME280;30240;47.418;0.700;2022-09-12T03:56:21;99994.6044921875;;;15.69;84.78
44531;BME280;30240;47.418;0.700;2022-09-12T03:58:49;99995.00732421875;;;15.74;84.76
44531;BME280;30240;47.418;0.700;2022-09-12T04:01:14;99992.32788085938;;;15.68;85.0
44531;BME280;30240;47.418;0.700;2022-09-12T04:06:05;99991.60766601562;;;15.62;85.19
44531;BME280;30240;47.418;0.700;2022-09-12T04:08:29;99991.60766601562;;;15.62;85.19
44531;BME280;30240;47.418;0.700;2022-09-12T04:10:51;99999.11499023438;;;15.54;85.31
44531;BME280;30240;47.418;0.700;2022-09-12T04:13:15;99992.98706054688;;;15.55;85.6
44531;BME280;30240;47.418;0.700;2022-09-12T04:15:41;99991.1376953125;;;15.53;85.56
44531;BME280;30240;47.418;0.700;2022-09-12T04:18:08;99989.14184570312;;;15.5;85.7
44531;BME280;30240;47.418;0.700;2022-09-12T04:20:31;99989.14184570312;;;15.5;85.7
44531;BME280;30240;47.418;0.700;2022-09-12T04:22:54;99983.251953125;;;15.49;85.7
44531;BME280;30240;47.418;0.700;2022-09-12T04:25:25;99975.28076171875;;;15.5;85.88
44531;BME280;30240;47.418;0.700;2022-09-12T04:27:49;99972.8271484375;;;15.4;86.06
44531;BME280;30240;47.418;0.700;2022-09-12T04:30:11;99974.658203125;;;15.36;86.3
44531;BME280;30240;47.418;0.700;2022-09-12T04:32:34;99974.658203125;;;15.36;86.3
44531;BME280;30240;47.418;0.700;2022-09-12T04:34:59;99972.86987304688;;;15.36;86.21
44531;BME280;30240;47.418;0.700;2022-09-12T04:39:52;99965.1611328125;;;15.36;86.66
44531;BME280;30240;47.418;0.700;2022-09-12T04:42:15;99963.4521484375;;;15.29;86.68
44531;BME280;30240;47.418;0.700;2022-09-12T04:44:42;99963.4521484375;;;15.29;86.68
44531;BME280;30240;47.418;0.700;2022-09-12T04:47:06;99964.33715820312;;;15.22;86.82
44531;BME280;30240;47.418;0.700;2022-09-12T04:51:54;99963.5009765625;;;15.19;87.08
44531;BME280;30240;47.418;0.700;2022-09-12T04:54:26;99963.330078125;;;15.15;87.19
44531;BME280;30240;47.418;0.700;2022-09-12T04:56:49;99963.330078125;;;15.15;87.19
44531;BME280;30240;47.418;0.700;2022-09-12T04:59:14;99963.25073242188;;;15.15;87.33
44531;BME280;30240;47.418;0.700;2022-09-12T05:01:40;99964.41650390625;;;15.09;87.58
44531;BME280;30240;47.418;0.700;2022-09-12T05:04:02;99962.75024414062;;;15.05;87.63
44531;BME280;30240;47.418;0.700;2022-09-12T05:06:29;99964.53247070312;;;15.03;87.67
44531;BME280;30240;47.418;0.700;2022-09-12T05:08:49;99964.53247070312;;;15.03;87.67
44531;BME280;30240;47.418;0.700;2022-09-12T05:11:18;99957.4951171875;;;15.01;87.71
44531;BME280;30240;47.418;0.700;2022-09-12T05:13:47;99964.42260742188;;;14.99;87.98
44531;BME280;30240;47.418;0.700;2022-09-12T05:16:09;99963.83056640625;;;14.99;87.89
44531;BME280;30240;47.418;0.700;2022-09-12T05:18:32;99969.03076171875;;;14.95;88.08
44531;BME280;30240;47.418;0.700;2022-09-12T05:20:59;99964.59350585938;;;14.95;87.96
44531;BME280;30240;47.418;0.700;2022-09-12T05:23:27;99964.59350585938;;;14.95;87.96
44531;BME280;30240;47.418;0.700;2022-09-12T05:25:47;99963.818359375;;;14.99;87.89
44531;BME280;30240;47.418;0.700;2022-09-12T05:28:13;99962.60375976562;;;14.96;87.98
44531;BME280;30240;47.418;0.700;2022-09-12T05:30:37;99967.0166015625;;;15.01;87.87
44531;BME280;30240;47.418;0.700;2022-09-12T05:33:04;99969.73266601562;;;14.96;88.03
44531;BME280;30240;47.418;0.700;2022-09-12T05:35:31;99969.73266601562;;;14.96;88.03
44531;BME280;30240;47.418;0.700;2022-09-12T05:37:49;99971.64306640625;;;14.99;87.98
44531;BME280;30240;47.418;0.700;2022-09-12T05:40:21;99968.24951171875;;;14.98;87.92
44531;BME280;30240;47.418;0.700;2022-09-12T05:42:41;99967.34619140625;;;15.06;87.53
44531;BME280;30240;47.418;0.700;2022-09-12T05:45:06;99965.61889648438;;;15.06;87.7
44531;BME280;30240;47.418;0.700;2022-09-12T05:47:28;99965.61889648438;;;15.06;87.7
44531;BME280;30240;47.418;0.700;2022-09-12T05:49:53;99959.23461914062;;;15.18;87.36
44531;BME280;30240;47.418;0.700;2022-09-12T05:52:18;99953.9794921875;;;15.19;87.3
44531;BME280;30240;47.418;0.700;2022-09-12T05:54:43;99958.06274414062;;;15.19;87.05
44531;BME280;30240;47.418;0.700;2022-09-12T05:57:08;99959.74731445312;;;15.29;86.93
44531;BME280;30240;47.418;0.700;2022-09-12T05:59:34;99959.74731445312;;;15.29;86.93
44531;BME280;30240;47.418;0.700;2022-09-12T06:01:59;99955.859375;;;15.29;86.89
44531;BME280;30240;47.418;0.700;2022-09-12T06:04:24;99958.544921875;;;15.3;86.64
44531;BME280;30240;47.418;0.700;2022-09-12T06:06:48;99958.09326171875;;;15.37;86.44
44531;BME280;30240;47.418;0.700;2022-09-12T06:09:15;99959.55200195312;;;15.64;85.56
44531;BME280;30240;47.418;0.700;2022-09-12T06:11:39;99959.55200195312;;;15.64;85.56
44531;BME280;30240;47.418;0.700;2022-09-12T06:14:03;99963.8427734375;;;16.3;83.4
44531;BME280;30240;47.418;0.700;2022-09-12T06:16:30;99964.3310546875;;;16.31;83.39
44531;BME280;30240;47.418;0.700;2022-09-12T06:18:55;99966.95556640625;;;16.26;83.83
44531;BME280;30240;47.418;0.700;2022-09-12T06:21:19;99972.9248046875;;;16.13;84.08
44531;BME280;30240;47.418;0.700;2022-09-12T06:23:43;99972.9248046875;;;16.13;84.08
44531;BME280;30240;47.418;0.700;2022-09-12T06:26:09;99968.49975585938;;;16.83;81.97
44531;BME280;30240;47.418;0.700;2022-09-12T06:28:35;99970.4345703125;;;17.16;79.53
44531;BME280;30240;47.418;0.700;2022-09-12T06:31:01;99972.7783203125;;;17.52;78.58
44531;BME280;30240;47.418;0.700;2022-09-12T06:33:23;99978.04565429688;;;17.17;79.68
44531;BME280;30240;47.418;0.700;2022-09-12T06:35:48;99978.04565429688;;;17.17;79.68
44531;BME280;30240;47.418;0.700;2022-09-12T06:38:13;99974.67041015625;;;17.38;78.63
44531;BME280;30240;47.418;0.700;2022-09-12T06:40:40;99972.49755859375;;;17.2;79.6
44531;BME280;30240;47.418;0.700;2022-09-12T06:43:03;99977.15454101562;;;16.69;81.76
44531;BME280;30240;47.418;0.700;2022-09-12T06:45:28;99982.28149414062;;;16.59;82.33
44531;BME280;30240;47.418;0.700;2022-09-12T06:47:53;99982.28149414062;;;16.59;82.33
44531;BME280;30240;47.418;0.700;2022-09-12T06:50:18;99984.31396484375;;;16.44;82.36
44531;BME280;30240;47.418;0.700;2022-09-12T06:52:43;99976.23291015625;;;16.83;81.97
44531;BME280;30240;47.418;0.700;2022-09-12T06:55:09;99952.25219726562;;;18.18;76.6
44531;BME280;30240;47.418;0.700;2022-09-12T06:57:33;99949.4873046875;;;18.22;76.08
44531;BME280;30240;47.418;0.700;2022-09-12T06:59:58;99952.294921875;;;17.65;77.65
44531;BME280;30240;47.418;0.700;2022-09-12T07:02:23;99952.294921875;;;17.65;77.65
44531;BME280;30240;47.418;0.700;2022-09-12T07:04:48;99948.6083984375;;;17.73;77.81
44531;BME280;30240;47.418;0.700;2022-09-12T07:07:13;99937.04833984375;;;18.88;74.97
44531;BME280;30240;47.418;0.700;2022-09-12T07:09:38;99921.20971679688;;;18.69;73.87
44531;BME280;30240;47.418;0.700;2022-09-12T07:12:04;99932.01293945312;;;18.44;75.79
44531;BME280;30240;47.418;0.700;2022-09-12T07:14:29;99932.01293945312;;;18.44;75.79
44531;BME280;30240;47.418;0.700;2022-09-12T07:16:53;99928.84521484375;;;18.44;75.95
44531;BME280;30240;47.418;0.700;2022-09-12T07:19:18;99921.95434570312;;;18.87;74.06
44531;BME280;30240;47.418;0.700;2022-09-12T07:21:43;99928.57666015625;;;18.1;76.51
44531;BME280;30240;47.418;0.700;2022-09-12T07:24:09;99929.27856445312;;;17.93;77.75
44531;BME280;30240;47.418;0.700;2022-09-12T07:26:33;99929.27856445312;;;17.93;77.75
44531;BME280;30240;47.418;0.700;2022-09-12T07:28:58;99937.14599609375;;;17.63;78.05
44531;BME280;30240;47.418;0.700;2022-09-12T07:31:25;99922.314453125;;;19.25;73.52
44531;BME280;30240;47.418;0.700;2022-09-12T07:33:49;99910.107421875;;;19.35;72.43
44531;BME280;30240;47.418;0.700;2022-09-12T07:36:15;99916.54052734375;;;18.74;74.6
44531;BME280;30240;47.418;0.700;2022-09-12T07:38:39;99916.54052734375;;;18.74;74.6
44531;BME280;30240;47.418;0.700;2022-09-12T07:41:09;99916.9189453125;;;18.51;75.33
44531;BME280;30240;47.418;0.700;2022-09-12T07:43:28;99918.45092773438;;;18.78;75.52
44531;BME280;30240;47.418;0.700;2022-09-12T07:45:54;99912.98217773438;;;20.39;70.36
44531;BME280;30240;47.418;0.700;2022-09-12T07:48:18;99919.78149414062;;;20.88;68.45
44531;BME280;30240;47.418;0.700;2022-09-12T07:50:43;99919.78149414062;;;20.88;68.45
44531;BME280;30240;47.418;0.700;2022-09-12T07:53:08;99920.02563476562;;;21.96;64.49
44531;BME280;30240;47.418;0.700;2022-09-12T07:55:34;99919.94018554688;;;20.43;68.47
44531;BME280;30240;47.418;0.700;2022-09-12T07:57:58;99920.8740234375;;;19.84;70.86
44531;BME280;30240;47.418;0.700;2022-09-12T08:00:24;99923.6572265625;;;19.07;73.4
44531;BME280;30240;47.418;0.700;2022-09-12T08:02:50;99923.6572265625;;;19.07;73.4
44531;BME280;30240;47.418;0.700;2022-09-12T08:05:13;99915.31372070312;;;20.48;69.58
44531;BME280;30240;47.418;0.700;2022-09-12T08:07:39;99907.87353515625;;;20.65;68.76
44531;BME280;30240;47.418;0.700;2022-09-12T08:10:04;99898.44360351562;;;22.34;63.94
44531;BME280;30240;47.418;0.700;2022-09-12T08:12:29;99891.40625;;;21.9;64.45
44531;BME280;30240;47.418;0.700;2022-09-12T08:14:53;99891.40625;;;21.9;64.45
44531;BME280;30240;47.418;0.700;2022-09-12T08:17:18;99890.51513671875;;;22.87;62.63
44531;BME280;30240;47.418;0.700;2022-09-12T08:19:43;99892.07763671875;;;22.44;63.93
44531;BME280;30240;47.418;0.700;2022-09-12T08:22:08;99898.9013671875;;;21.65;65.9
44531;BME280;30240;47.418;0.700;2022-09-12T08:24:33;99888.25073242188;;;22.55;63.24
44531;BME280;30240;47.418;0.700;2022-09-12T08:26:58;99888.25073242188;;;22.55;63.24
44531;BME280;30240;47.418;0.700;2022-09-12T08:29:23;99890.72875976562;;;22.49;62.43
44531;BME280;30240;47.418;0.700;2022-09-12T08:31:48;99886.77368164062;;;23.34;60.76
44531;BME280;30240;47.418;0.700;2022-09-12T08:34:14;99884.01489257812;;;23.41;61.31
44531;BME280;30240;47.418;0.700;2022-09-12T08:36:38;99882.6904296875;;;23.56;60.62
44531;BME280;30240;47.418;0.700;2022-09-12T08:39:05;99876.9287109375;;;23.92;59.6
44531;BME280;30240;47.418;0.700;2022-09-12T08:41:30;99876.9287109375;;;23.92;59.6
44531;BME280;30240;47.418;0.700;2022-09-12T08:44:01;99870.54443359375;;;23.56;59.48
44531;BME280;30240;47.418;0.700;2022-09-12T08:44:08;99870.54443359375;;;23.56;59.48
44531;BME280;30240;47.418;0.700;2022-09-12T08:46:21;99872.79663085938;;;24.24;59.1
44531;BME280;30240;47.418;0.700;2022-09-12T08:48:45;99861.083984375;;;23.29;61.17
44531;BME280;30240;47.418;0.700;2022-09-12T08:51:10;99866.6748046875;;;24.21;59.0
44531;BME280;30240;47.418;0.700;2022-09-12T08:53:34;99866.6748046875;;;24.21;59.0
44531;BME280;30240;47.418;0.700;2022-09-12T08:55:59;99865.93627929688;;;24.43;58.34
44531;BME280;30240;47.418;0.700;2022-09-12T08:58:25;99864.013671875;;;24.33;58.34
44531;BME280;30240;47.418;0.700;2022-09-12T09:01:01;99867.57202148438;;;23.93;59.43
44531;BME280;30240;47.418;0.700;2022-09-12T09:03:42;99866.162109375;;;24.9;57.48
44531;BME280;30240;47.418;0.700;2022-09-12T09:05:44;99866.162109375;;;24.9;57.48
44531;BME280;30240;47.418;0.700;2022-09-12T09:08:12;99863.14086914062;;;24.8;57.25
44531;BME280;30240;47.418;0.700;2022-09-12T09:10:34;99859.73510742188;;;25.39;56.34
44531;BME280;30240;47.418;0.700;2022-09-12T09:12:59;99859.92431640625;;;26.46;53.45
44531;BME280;30240;47.418;0.700;2022-09-12T09:13:05;99859.92431640625;;;26.46;53.45
44531;BME280;30240;47.418;0.700;2022-09-12T09:15:26;99861.13891601562;;;27.38;51.04
44531;BME280;30240;47.418;0.700;2022-09-12T09:17:48;99861.13891601562;;;27.38;51.04
44531;BME280;30240;47.418;0.700;2022-09-12T09:20:15;99867.1875;;;26.78;52.42
44531;BME280;30240;47.418;0.700;2022-09-12T09:22:39;99863.76342773438;;;25.69;54.49
44531;BME280;30240;47.418;0.700;2022-09-12T09:25:01;99870.11108398438;;;24.76;56.51
44531;BME280;30240;47.418;0.700;2022-09-12T09:27:27;99873.046875;;;26.12;53.79
44531;BME280;30240;47.418;0.700;2022-09-12T09:29:53;99873.046875;;;26.12;53.79
44531;BME280;30240;47.418;0.700;2022-09-12T09:32:17;99871.6552734375;;;26.5;53.57
44531;BME280;30240;47.418;0.700;2022-09-12T09:34:39;99867.76733398438;;;26.75;52.04
44531;BME280;30240;47.418;0.700;2022-09-12T09:37:08;99878.81469726562;;;27.38;51.48
44531;BME280;30240;47.418;0.700;2022-09-12T09:37:14;99878.81469726562;;;27.38;51.48
44531;BME280;30240;47.418;0.700;2022-09-12T09:39:36;99879.0283203125;;;27.26;50.95
44531;BME280;30240;47.418;0.700;2022-09-12T09:42:00;99879.0283203125;;;27.26;50.95
44531;BME280;30240;47.418;0.700;2022-09-12T09:42:10;99879.0283203125;;;27.26;50.95
44531;BME280;30240;47.418;0.700;2022-09-12T09:44:19;99876.84326171875;;;26.2;52.28
44531;BME280;30240;47.418;0.700;2022-09-12T09:46:49;99881.9091796875;;;27.02;51.36
44531;BME280;30240;47.418;0.700;2022-09-12T09:49:11;99882.84301757812;;;27.24;50.77
44531;BME280;30240;47.418;0.700;2022-09-12T09:51:37;99881.69555664062;;;26.36;52.22
44531;BME280;30240;47.418;0.700;2022-09-12T09:54:02;99881.69555664062;;;26.36;52.22
44531;BME280;30240;47.418;0.700;2022-09-12T09:56:27;99873.62670898438;;;27.59;49.63
44531;BME280;30240;47.418;0.700;2022-09-12T09:58:49;99873.45581054688;;;28.36;48.05
44531;BME280;30240;47.418;0.700;2022-09-12T10:01:15;99875.75073242188;;;28.38;48.64
44531;BME280;30240;47.418;0.700;2022-09-12T10:03:39;99870.95336914062;;;27.31;49.78
44531;BME280;30240;47.418;0.700;2022-09-12T10:03:48;99870.95336914062;;;27.31;49.78
44531;BME280;30240;47.418;0.700;2022-09-12T10:06:06;99853.55224609375;;;27.78;49.49
44531;BME280;30240;47.418;0.700;2022-09-12T10:08:30;99853.55224609375;;;27.78;49.49
44531;BME280;30240;47.418;0.700;2022-09-12T10:10:56;99852.5146484375;;;27.23;50.61
44531;BME280;30240;47.418;0.700;2022-09-12T10:13:23;99853.45458984375;;;28.24;48.59
44531;BME280;30240;47.418;0.700;2022-09-12T10:15:55;99856.35986328125;;;29.7;45.91
44531;BME280;30240;47.418;0.700;2022-09-12T10:18:09;99861.33422851562;;;29.84;46.21
44531;BME280;30240;47.418;0.700;2022-09-12T10:20:38;99861.33422851562;;;29.84;46.21
44531;BME280;30240;47.418;0.700;2022-09-12T10:23:00;99855.99975585938;;;28.73;48.5
44531;BME280;30240;47.418;0.700;2022-09-12T10:25:24;99853.6376953125;;;29.96;45.72
44531;BME280;30240;47.418;0.700;2022-09-12T10:27:53;99854.01611328125;;;30.14;45.4
44531;BME280;30240;47.418;0.700;2022-09-12T10:30:17;99857.62329101562;;;29.79;45.26
44531;BME280;30240;47.418;0.700;2022-09-12T10:32:40;99857.62329101562;;;29.79;45.26
44531;BME280;30240;47.418;0.700;2022-09-12T10:35:06;99862.29858398438;;;30.88;43.78
44531;BME280;30240;47.418;0.700;2022-09-12T10:37:31;99861.62719726562;;;30.52;44.34
44531;BME280;30240;47.418;0.700;2022-09-12T10:39:55;99852.34375;;;30.97;43.77
44531;BME280;30240;47.418;0.700;2022-09-12T10:42:46;99847.51586914062;;;30.74;44.07
44531;BME280;30240;47.418;0.700;2022-09-12T10:44:52;99847.51586914062;;;30.74;44.07
44531;BME280;30240;47.418;0.700;2022-09-12T10:47:20;99846.142578125;;;30.79;43.82
44531;BME280;30240;47.418;0.700;2022-09-12T10:49:34;99843.34106445312;;;30.83;44.51
44531;BME280;30240;47.418;0.700;2022-09-12T10:52:16;99835.15625;;;30.76;44.15
44531;BME280;30240;47.418;0.700;2022-09-12T10:54:26;99836.279296875;;;31.36;43.74
44531;BME280;30240;47.418;0.700;2022-09-12T10:57:08;99836.279296875;;;31.36;43.74
44531;BME280;30240;47.418;0.700;2022-09-12T10:59:21;99830.45043945312;;;31.08;43.17
44531;BME280;30240;47.418;0.700;2022-09-12T11:01:40;99830.15747070312;;;32.18;42.05
44531;BME280;30240;47.418;0.700;2022-09-12T11:04:21;99830.2490234375;;;30.81;44.43
44531;BME280;30240;47.418;0.700;2022-09-12T11:06:33;99834.0576171875;;;30.88;44.25
44531;BME280;30240;47.418;0.700;2022-09-12T11:09:01;99834.0576171875;;;30.88;44.25
44531;BME280;30240;47.418;0.700;2022-09-12T11:11:37;99830.96313476562;;;31.69;43.03
44531;BME280;30240;47.418;0.700;2022-09-12T11:11:44;99830.96313476562;;;31.69;43.03
44531;BME280;30240;47.418;0.700;2022-09-12T11:11:52;99830.96313476562;;;31.69;43.03
44531;BME280;30240;47.418;0.700;2022-09-12T11:14:08;99827.36206054688;;;32.68;41.57